createdAt,value
2018-07-23T00:00:56.173Z,100854.23
2018-07-23T00:01:56.962Z,100854.46
2018-07-23T00:02:57.735Z,100854.53
2018-07-23T00:03:58.533Z,100854.25
2018-07-23T00:04:59.310Z,100854.23
2018-07-23T00:06:00.085Z,100854.81
2018-07-23T00:07:00.862Z,100854.53
2018-07-23T00:08:01.646Z,100854.36
2018-07-23T00:09:02.445Z,100854.77
2018-07-23T00:10:03.214Z,100854.57
2018-07-23T00:11:03.994Z,100854.45
2018-07-23T00:12:04.770Z,100854.54
2018-07-23T00:13:05.546Z,100855.38
2018-07-23T00:14:06.357Z,100855.34
2018-07-23T00:15:07.136Z,100856.14
2018-07-23T00:16:07.921Z,100856.80
2018-07-23T00:17:08.689Z,100857.55
2018-07-23T00:18:09.470Z,100858.90
2018-07-23T00:19:10.267Z,100860.07
2018-07-23T00:20:11.052Z,100861.08
2018-07-23T00:21:11.821Z,100862.42
2018-07-23T00:22:12.599Z,100862.64
2018-07-23T00:23:13.375Z,100863.11
2018-07-23T00:24:14.187Z,100864.00
2018-07-23T00:25:14.961Z,100865.02
2018-07-23T00:26:15.734Z,100866.16
2018-07-23T00:27:16.508Z,100866.77
2018-07-23T00:28:17.282Z,100866.54
2018-07-23T00:29:18.085Z,100866.70
2018-07-23T00:30:18.861Z,100866.52
2018-07-23T00:31:19.640Z,100866.61
2018-07-23T00:32:20.420Z,100866.85
2018-07-23T00:33:21.192Z,100867.09
2018-07-23T00:34:21.998Z,100867.72
2018-07-23T00:35:22.772Z,100867.69
2018-07-23T00:36:23.545Z,100867.76
2018-07-23T00:37:24.323Z,100867.91
2018-07-23T00:38:25.108Z,100867.97
2018-07-23T00:39:25.914Z,100868.11
2018-07-23T00:40:26.690Z,100868.67
2018-07-23T00:41:26.466Z,100868.95
2018-07-23T00:42:28.244Z,100868.85
2018-07-23T00:43:29.027Z,100868.66
2018-07-23T00:44:29.829Z,100868.97
2018-07-23T00:45:31.598Z,100869.20
2018-07-23T00:46:31.376Z,100869.27
2018-07-23T00:47:33.148Z,100869.12
2018-07-23T00:48:32.927Z,100869.11
2018-07-23T00:49:33.927Z,100869.02
2018-07-23T00:50:33.703Z,100869.41
2018-07-23T00:51:34.479Z,100870.22
2018-07-23T00:52:35.251Z,100870.21
2018-07-23T00:53:36.029Z,100870.39
2018-07-23T00:54:36.836Z,100870.89
2018-07-23T00:55:37.611Z,100871.20
2018-07-23T00:56:38.394Z,100871.25
2018-07-23T00:57:39.170Z,100871.37
2018-07-23T00:58:39.944Z,100871.42
2018-07-23T00:59:40.749Z,100871.97
2018-07-23T01:00:41.530Z,100871.66
2018-07-23T01:01:42.303Z,100872.05
2018-07-23T01:02:43.079Z,100872.34
2018-07-23T01:03:43.852Z,100872.22
2018-07-23T01:04:44.658Z,100872.18
2018-07-23T01:05:45.433Z,100872.34
2018-07-23T01:06:46.215Z,100872.59
2018-07-23T01:07:46.991Z,100873.30
2018-07-23T01:08:47.767Z,100873.36
2018-07-23T01:09:48.599Z,100873.47
2018-07-23T01:10:48.348Z,100873.57
2018-07-23T01:11:50.124Z,100874.20
2018-07-23T01:12:50.912Z,100874.43
2018-07-23T01:13:52.101Z,100874.84
2018-07-23T01:23:32.168Z,100877.17
2018-07-23T01:24:32.942Z,100881.25
2018-07-23T01:25:33.742Z,100881.00
2018-07-23T01:26:34.520Z,100880.20
2018-07-23T01:27:35.292Z,100880.20
2018-07-23T01:28:36.071Z,100879.95
2018-07-23T01:29:36.851Z,100880.07
2018-07-23T01:30:37.661Z,100879.28
2018-07-23T01:31:38.433Z,100878.95
2018-07-23T01:32:39.209Z,100878.23
2018-07-23T01:33:39.995Z,100878.33
2018-07-23T01:34:40.761Z,100878.55
2018-07-23T01:35:41.570Z,100877.96
2018-07-23T01:36:42.337Z,100878.05
2018-07-23T01:37:43.118Z,100879.03
2018-07-23T01:38:43.895Z,100879.05
2018-07-23T01:39:44.670Z,100880.25
2018-07-23T01:40:45.483Z,100880.86
2018-07-23T01:41:46.262Z,100880.98
2018-07-23T01:42:47.036Z,100881.58
2018-07-23T01:43:47.813Z,100881.85
2018-07-23T01:44:48.597Z,100882.36
2018-07-23T01:45:49.395Z,100883.81
2018-07-23T01:46:50.165Z,100883.98
2018-07-23T01:47:50.947Z,100884.16
2018-07-23T01:48:51.717Z,100884.59
2018-07-23T01:49:52.494Z,100884.85
2018-07-23T01:50:53.294Z,100885.32
2018-07-23T01:51:54.072Z,100885.66
2018-07-23T01:52:54.843Z,100886.05
2018-07-23T01:53:55.621Z,100886.56
2018-07-23T01:54:56.393Z,100886.91
2018-07-23T01:55:57.198Z,100887.89
2018-07-23T01:56:57.973Z,100887.86
2018-07-23T01:57:59.749Z,100888.56
2018-07-23T01:58:59.524Z,100889.17
2018-07-23T02:00:00.307Z,100889.46
2018-07-23T02:01:01.110Z,100889.21
2018-07-23T02:02:01.904Z,100889.73
2018-07-23T02:03:02.664Z,100890.16
2018-07-23T02:04:03.523Z,100890.20
2018-07-23T02:05:03.227Z,100890.64
2018-07-23T02:06:05.027Z,100890.14
2018-07-23T02:07:05.824Z,100890.44
2018-07-23T02:08:06.609Z,100890.63
2018-07-23T02:09:07.384Z,100890.34
2018-07-23T02:10:08.158Z,100890.92
2018-07-23T02:11:08.961Z,100890.91
2018-07-23T02:12:09.736Z,100891.25
2018-07-23T02:13:10.515Z,100891.53
2018-07-23T02:14:11.296Z,100891.47
2018-07-23T02:15:12.063Z,100892.22
2018-07-23T02:16:12.879Z,100892.62
2018-07-23T02:17:13.644Z,100892.95
2018-07-23T02:18:14.458Z,100893.35
2018-07-23T02:19:14.200Z,100893.89
2018-07-23T02:20:15.973Z,100894.56
2018-07-23T02:21:16.776Z,100895.09
2018-07-23T02:22:17.560Z,100895.50
2018-07-23T02:23:18.337Z,100896.15
2018-07-23T02:24:19.114Z,100896.30
2018-07-23T02:25:19.890Z,100896.97
2018-07-23T02:26:20.700Z,100897.72
2018-07-23T02:27:21.472Z,100898.64
2018-07-23T02:28:22.250Z,100899.55
2018-07-23T02:29:23.025Z,100900.25
2018-07-23T02:30:23.799Z,100900.67
2018-07-23T02:31:24.605Z,100900.95
2018-07-23T02:32:25.381Z,100901.27
2018-07-23T02:33:26.161Z,100901.67
2018-07-23T02:34:26.940Z,100902.05
2018-07-23T02:35:27.725Z,100902.92
2018-07-23T02:36:28.524Z,100902.61
2018-07-23T02:37:29.308Z,100902.93
2018-07-23T02:38:30.072Z,100903.00
2018-07-23T02:39:30.850Z,100903.62
2018-07-23T02:40:34.409Z,100904.41
2018-07-23T02:41:32.213Z,100904.48
2018-07-23T02:42:32.988Z,100904.42
2018-07-23T02:43:33.776Z,100904.36
2018-07-23T02:44:34.576Z,100904.86
2018-07-23T02:45:35.351Z,100905.02
2018-07-23T02:46:36.124Z,100905.23
2018-07-23T02:47:36.904Z,100905.64
2018-07-23T02:48:37.678Z,100906.12
2018-07-23T02:49:38.499Z,100906.27
2018-07-23T02:50:39.270Z,100906.45
2018-07-23T02:51:40.050Z,100907.22
2018-07-23T02:52:40.822Z,100907.80
2018-07-23T02:53:41.598Z,100908.20
2018-07-23T02:54:42.400Z,100908.98
2018-07-23T02:55:43.186Z,100909.47
2018-07-23T02:56:43.960Z,100910.20
2018-07-23T02:57:44.736Z,100910.68
2018-07-23T02:58:45.512Z,100911.37
2018-07-23T02:59:46.480Z,100911.86
2018-07-23T03:00:46.097Z,100912.34
2018-07-23T03:01:47.875Z,100912.70
2018-07-23T03:02:48.654Z,100913.27
2018-07-23T03:03:49.425Z,100913.98
2018-07-23T03:04:50.231Z,100914.33
2018-07-23T03:05:51.008Z,100914.64
2018-07-23T03:06:51.799Z,100915.26
2018-07-23T03:07:52.570Z,100915.15
2018-07-23T03:08:53.349Z,100915.28
2018-07-23T03:09:54.150Z,100915.34
2018-07-23T03:10:54.927Z,100915.66
2018-07-23T03:11:55.705Z,100916.48
2018-07-23T03:12:56.911Z,100916.97
2018-07-23T03:13:57.175Z,100916.64
2018-07-23T03:14:56.503Z,100916.97
2018-07-23T03:25:34.291Z,100930.59
2018-07-23T03:26:36.067Z,100928.37
2018-07-23T03:27:36.837Z,100928.20
2018-07-23T03:28:37.616Z,100928.55
2018-07-23T03:29:38.388Z,100928.08
2018-07-23T03:30:39.195Z,100928.68
2018-07-23T03:31:39.972Z,100928.94
2018-07-23T03:32:40.746Z,100929.41
2018-07-23T03:33:41.519Z,100929.42
2018-07-23T03:34:42.302Z,100929.85
2018-07-23T03:35:43.117Z,100930.36
2018-07-23T03:36:43.890Z,100931.05
2018-07-23T03:37:44.674Z,100930.92
2018-07-23T03:38:45.440Z,100931.87
2018-07-23T03:39:46.217Z,100932.50
2018-07-23T03:40:47.018Z,100933.97
2018-07-23T03:41:47.796Z,100934.83
2018-07-23T03:42:48.569Z,100935.82
2018-07-23T03:43:49.344Z,100937.07
2018-07-23T03:44:50.120Z,100938.16
2018-07-23T03:45:50.946Z,100938.33
2018-07-23T03:46:51.708Z,100939.30
2018-07-23T03:47:52.570Z,100940.06
2018-07-23T03:48:52.272Z,100940.80
2018-07-23T03:49:54.047Z,100941.94
2018-07-23T03:50:54.859Z,100942.58
2018-07-23T03:51:55.637Z,100943.91
2018-07-23T03:52:56.420Z,100944.64
2018-07-23T03:53:57.187Z,100945.17
2018-07-23T03:54:57.971Z,100946.11
2018-07-23T03:55:58.771Z,100947.09
2018-07-23T03:56:59.546Z,100948.20
2018-07-23T03:58:00.323Z,100948.73
2018-07-23T03:59:01.099Z,100949.88
2018-07-23T04:00:01.875Z,100950.83
2018-07-23T04:01:02.684Z,100951.34
2018-07-23T04:02:03.462Z,100952.33
2018-07-23T04:03:04.239Z,100953.35
2018-07-23T04:04:05.017Z,100953.95
2018-07-23T04:05:05.790Z,100954.72
2018-07-23T04:06:05.594Z,100955.23
2018-07-23T04:07:07.372Z,100956.17
2018-07-23T04:08:08.153Z,100957.03
2018-07-23T04:09:08.923Z,100957.63
2018-07-23T04:10:09.711Z,100957.98
2018-07-23T04:11:10.513Z,100958.44
2018-07-23T04:12:11.297Z,100959.13
2018-07-23T04:13:12.066Z,100959.81
2018-07-23T04:14:12.925Z,100960.03
2018-07-23T04:15:12.630Z,100961.24
2018-07-23T04:16:14.434Z,100961.89
2018-07-23T04:17:15.211Z,100962.92
2018-07-23T04:18:15.990Z,100963.48
2018-07-23T04:19:16.774Z,100963.95
2018-07-23T04:20:17.544Z,100964.66
2018-07-23T04:21:18.349Z,100964.66
2018-07-23T04:22:19.126Z,100965.58
2018-07-23T04:23:19.900Z,100965.72
2018-07-23T04:24:20.674Z,100966.11
2018-07-23T04:25:21.453Z,100966.77
2018-07-23T04:26:22.277Z,100967.41
2018-07-23T04:27:23.045Z,100967.59
2018-07-23T04:28:23.822Z,100968.62
2018-07-23T04:29:24.599Z,100968.49
2018-07-23T04:30:25.376Z,100969.19
2018-07-23T04:31:26.181Z,100969.49
2018-07-23T04:32:26.961Z,100970.09
2018-07-23T04:33:27.743Z,100970.78
2018-07-23T04:34:27.603Z,100971.20
2018-07-23T04:35:28.322Z,100971.28
2018-07-23T04:36:30.133Z,100971.23
2018-07-23T04:37:30.900Z,100972.08
2018-07-23T04:38:31.679Z,100972.72
2018-07-23T04:39:32.452Z,100973.40
2018-07-23T04:40:33.228Z,100973.74
2018-07-23T04:41:34.031Z,100974.12
2018-07-23T04:42:34.813Z,100973.95
2018-07-23T04:43:35.597Z,100975.11
2018-07-23T04:44:36.367Z,100975.78
2018-07-23T04:45:37.142Z,100976.23
2018-07-23T04:46:37.952Z,100977.25
2018-07-23T04:47:38.728Z,100977.45
2018-07-23T04:48:39.505Z,100978.53
2018-07-23T04:49:40.289Z,100979.28
2018-07-23T04:50:41.092Z,100979.34
2018-07-23T04:51:40.873Z,100980.05
2018-07-23T04:52:42.650Z,100981.36
2018-07-23T04:53:43.429Z,100981.75
2018-07-23T04:54:44.202Z,100982.70
2018-07-23T04:55:44.980Z,100983.09
2018-07-23T04:56:45.863Z,100983.85
2018-07-23T04:57:45.557Z,100984.42
2018-07-23T04:58:47.334Z,100985.73
2018-07-23T04:59:48.115Z,100986.39
2018-07-23T05:00:48.894Z,100987.34
2018-07-23T05:01:49.696Z,100987.82
2018-07-23T05:02:50.485Z,100988.16
2018-07-23T05:03:51.250Z,100988.84
2018-07-23T05:04:52.031Z,100989.77
2018-07-23T05:05:52.801Z,100989.63
2018-07-23T05:06:53.623Z,100990.48
2018-07-23T05:07:54.395Z,100990.53
2018-07-23T05:08:55.173Z,100990.70
2018-07-23T05:09:55.959Z,100991.23
2018-07-23T05:10:55.733Z,100991.31
2018-07-23T05:11:57.537Z,100992.06
2018-07-23T05:12:58.311Z,100992.50
2018-07-23T05:13:59.094Z,100992.83
2018-07-23T05:14:59.869Z,100993.17
2018-07-23T05:16:00.673Z,100993.25
2018-07-23T05:17:00.454Z,100994.00
2018-07-23T05:18:02.232Z,100994.72
2018-07-23T05:19:04.009Z,100995.34
2018-07-23T05:20:04.216Z,100996.00
2018-07-23T05:21:05.482Z,100996.86
2018-07-23T05:22:03.793Z,100997.37
2018-07-23T05:23:04.055Z,100997.70
2018-07-23T05:24:18.791Z,101006.56
2018-07-23T05:25:19.568Z,101005.72
2018-07-23T05:26:20.348Z,101005.44
2018-07-23T05:27:21.150Z,101005.34
2018-07-23T05:28:21.928Z,101005.05
2018-07-23T05:29:22.716Z,101004.84
2018-07-23T05:30:23.479Z,101004.30
2018-07-23T05:31:24.275Z,101004.59
2018-07-23T05:32:25.063Z,101004.64
2018-07-23T05:33:25.837Z,101004.32
2018-07-23T05:34:26.620Z,101004.34
2018-07-23T05:35:27.409Z,101003.85
2018-07-23T05:36:28.165Z,101004.22
2018-07-23T05:37:28.988Z,101004.13
2018-07-23T05:38:29.793Z,101003.95
2018-07-23T05:39:29.542Z,101004.46
2018-07-23T05:40:31.306Z,101004.42
2018-07-23T05:41:32.088Z,101004.11
2018-07-23T05:42:32.890Z,101004.25
2018-07-23T05:43:33.665Z,101004.72
2018-07-23T05:44:34.441Z,101004.13
2018-07-23T05:45:35.220Z,101003.91
2018-07-23T05:46:35.993Z,101003.81
2018-07-23T05:47:36.803Z,101003.29
2018-07-23T05:48:37.579Z,101003.47
2018-07-23T05:49:38.356Z,101003.09
2018-07-23T05:50:39.140Z,101003.43
2018-07-23T05:51:39.915Z,101003.24
2018-07-23T05:52:40.717Z,101003.42
2018-07-23T05:53:41.494Z,101003.31
2018-07-23T05:54:42.279Z,101004.22
2018-07-23T05:55:43.064Z,101004.28
2018-07-23T05:56:43.833Z,101003.90
2018-07-23T05:57:44.707Z,101003.31
2018-07-23T05:58:44.439Z,101003.78
2018-07-23T05:59:45.192Z,101003.23
2018-07-23T06:00:46.970Z,101002.92
2018-07-23T06:01:48.744Z,101002.78
2018-07-23T06:02:48.554Z,101002.20
2018-07-23T06:03:49.349Z,101001.92
2018-07-23T06:04:50.106Z,101001.66
2018-07-23T06:05:50.890Z,101001.70
2018-07-23T06:06:51.795Z,101001.57
2018-07-23T06:07:51.478Z,101001.62
2018-07-23T06:08:53.267Z,101001.73
2018-07-23T06:09:53.034Z,101001.23
2018-07-23T06:10:54.815Z,101001.01
2018-07-23T06:11:55.587Z,101000.69
2018-07-23T06:12:56.391Z,101000.23
2018-07-23T06:13:57.168Z,101000.08
2018-07-23T06:14:57.954Z,100999.09
2018-07-23T06:15:58.737Z,100999.48
2018-07-23T06:16:59.510Z,100998.43
2018-07-23T06:18:00.319Z,100998.23
2018-07-23T06:19:01.119Z,100998.09
2018-07-23T06:20:00.872Z,100998.33
2018-07-23T06:21:02.657Z,100998.84
2018-07-23T06:22:03.435Z,100998.38
2018-07-23T06:23:04.244Z,100998.68
2018-07-23T06:24:05.017Z,100998.47
2018-07-23T06:25:05.792Z,100999.28
2018-07-23T06:26:06.570Z,100999.37
2018-07-23T06:27:07.349Z,100999.58
2018-07-23T06:28:08.170Z,100999.32
2018-07-23T06:29:08.942Z,100999.00
2018-07-23T06:30:09.761Z,100998.80
2018-07-23T06:31:09.496Z,100998.40
2018-07-23T06:32:11.272Z,100998.48
2018-07-23T06:33:12.079Z,100998.48
2018-07-23T06:34:12.856Z,100997.83
2018-07-23T06:35:13.635Z,100997.66
2018-07-23T06:36:14.411Z,100997.91
2018-07-23T06:37:15.187Z,100997.84
2018-07-23T06:38:15.997Z,100997.98
2018-07-23T06:39:16.765Z,100998.13
2018-07-23T06:40:17.546Z,100998.35
2018-07-23T06:41:18.315Z,100998.20
2018-07-23T06:42:19.097Z,100998.63
2018-07-23T06:43:19.934Z,100998.30
2018-07-23T06:44:19.676Z,100998.59
2018-07-23T06:45:21.452Z,100998.73
2018-07-23T06:46:22.227Z,100999.13
2018-07-23T06:47:23.028Z,100998.62
2018-07-23T06:48:23.821Z,100997.83
2018-07-23T06:49:24.597Z,100997.50
2018-07-23T06:50:25.372Z,100997.89
2018-07-23T06:51:26.148Z,100997.36
2018-07-23T06:52:26.924Z,100997.02
2018-07-23T06:53:27.738Z,100997.36
2018-07-23T06:54:28.515Z,100997.23
2018-07-23T06:55:29.288Z,100997.64
2018-07-23T06:56:30.067Z,100998.25
2018-07-23T06:57:30.941Z,100998.81
2018-07-23T06:58:30.652Z,100998.80
2018-07-23T06:59:32.429Z,100999.05
2018-07-23T07:00:33.217Z,100999.22
2018-07-23T07:01:33.988Z,100999.84
2018-07-23T07:02:34.764Z,101000.05
2018-07-23T07:03:35.570Z,101000.38
2018-07-23T07:04:36.348Z,101000.25
2018-07-23T07:05:37.124Z,101000.71
2018-07-23T07:06:37.903Z,101001.13
2018-07-23T07:07:38.684Z,101000.84
2018-07-23T07:08:39.488Z,101001.46
2018-07-23T07:09:40.265Z,101001.41
2018-07-23T07:10:41.043Z,101001.48
2018-07-23T07:11:41.824Z,101001.59
2018-07-23T07:12:42.595Z,101001.17
2018-07-23T07:13:43.400Z,101001.62
2018-07-23T07:14:44.179Z,101001.72
2018-07-23T07:15:44.960Z,101001.64
2018-07-23T07:16:45.740Z,101001.25
2018-07-23T07:17:46.518Z,101001.61
2018-07-23T07:18:50.808Z,101001.72
2018-07-23T07:19:57.673Z,100993.81
2018-07-23T07:20:57.396Z,100994.16
2018-07-23T07:21:59.174Z,100993.95
2018-07-23T07:22:59.953Z,100994.34
2018-07-23T07:24:00.755Z,100993.98
2018-07-23T07:25:01.536Z,100994.04
2018-07-23T07:26:02.314Z,100993.55
2018-07-23T07:27:03.088Z,100993.22
2018-07-23T07:28:03.865Z,100993.16
2018-07-23T07:29:04.668Z,100993.27
2018-07-23T07:30:05.442Z,100993.44
2018-07-23T07:31:06.303Z,100993.90
2018-07-23T07:32:06.005Z,100993.75
2018-07-23T07:33:07.781Z,100993.77
2018-07-23T07:34:08.592Z,100993.88
2018-07-23T07:35:09.366Z,100994.08
2018-07-23T07:36:10.140Z,100994.16
2018-07-23T07:37:10.918Z,100994.59
2018-07-23T07:38:11.759Z,100994.36
2018-07-23T07:39:11.506Z,100995.03
2018-07-23T07:40:13.280Z,100994.91
2018-07-23T07:41:14.054Z,100995.41
2018-07-23T07:42:14.832Z,100995.34
2018-07-23T07:43:15.607Z,100995.52
2018-07-23T07:44:17.404Z,100996.05
2018-07-23T07:45:17.183Z,100996.17
2018-07-23T07:46:18.953Z,100995.92
2018-07-23T07:47:18.727Z,100996.45
2018-07-23T07:48:19.502Z,100996.78
2018-07-23T07:49:20.308Z,100996.92
2018-07-23T07:50:21.083Z,100997.56
2018-07-23T07:51:21.858Z,100997.62
2018-07-23T07:52:22.644Z,100998.16
2018-07-23T07:53:23.419Z,100998.43
2018-07-23T07:54:24.232Z,100998.61
2018-07-23T07:55:24.999Z,100998.41
2018-07-23T07:56:25.776Z,100998.36
2018-07-23T07:57:26.556Z,100998.42
2018-07-23T07:58:26.328Z,100998.70
2018-07-23T07:59:28.133Z,100998.64
2018-07-23T08:00:29.908Z,100998.03
2018-07-23T08:01:29.682Z,100997.66
2018-07-23T08:02:30.457Z,100997.11
2018-07-23T08:03:31.231Z,100996.98
2018-07-23T08:04:32.044Z,100996.42
2018-07-23T08:05:32.823Z,100995.80
2018-07-23T08:06:33.598Z,100995.03
2018-07-23T08:07:34.374Z,100994.19
2018-07-23T08:08:35.232Z,100993.55
2018-07-23T08:09:34.968Z,100992.94
2018-07-23T08:10:36.739Z,100992.66
2018-07-23T08:11:37.520Z,100992.02
2018-07-23T08:12:38.348Z,100991.38
2018-07-23T08:13:38.072Z,100990.91
2018-07-23T08:14:39.876Z,100990.05
2018-07-23T08:15:40.659Z,100989.66
2018-07-23T08:16:41.427Z,100988.79
2018-07-23T08:17:42.213Z,100988.26
2018-07-23T08:18:42.981Z,100987.17
2018-07-23T08:19:44.788Z,100985.77
2018-07-23T08:20:44.563Z,100985.44
2018-07-23T08:21:45.342Z,100985.06
2018-07-23T08:22:46.122Z,100984.06
2018-07-23T08:23:46.901Z,100984.04
2018-07-23T08:24:47.709Z,100983.24
2018-07-23T08:25:48.485Z,100982.93
2018-07-23T08:26:49.266Z,100982.47
2018-07-23T08:27:50.095Z,100981.53
2018-07-23T08:28:49.834Z,100980.73
2018-07-23T08:29:51.646Z,100980.45
2018-07-23T08:30:52.420Z,100980.13
2018-07-23T08:31:53.314Z,100979.67
2018-07-23T08:32:52.973Z,100979.31
2018-07-23T08:33:54.751Z,100979.31
2018-07-23T08:34:55.558Z,100978.70
2018-07-23T08:35:56.336Z,100978.52
2018-07-23T08:36:57.163Z,100978.67
2018-07-23T08:37:56.888Z,100978.80
2018-07-23T08:38:58.670Z,100978.93
2018-07-23T08:39:59.475Z,100978.71
2018-07-23T08:41:00.337Z,100978.49
2018-07-23T08:42:00.065Z,100978.80
2018-07-23T08:43:01.863Z,100978.30
2018-07-23T08:44:01.602Z,100978.45
2018-07-23T08:45:03.528Z,100978.33
2018-07-23T08:46:03.438Z,100978.13
2018-07-23T08:47:04.141Z,100977.55
2018-07-23T08:48:05.919Z,100977.67
2018-07-23T08:49:06.696Z,100976.89
2018-07-23T08:50:07.495Z,100977.47
2018-07-23T08:51:08.287Z,100977.20
2018-07-23T08:52:09.053Z,100977.02
2018-07-23T08:53:09.835Z,100976.41
2018-07-23T08:54:10.608Z,100976.66
2018-07-23T08:55:11.494Z,100975.98
2018-07-23T08:56:11.293Z,100975.84
2018-07-23T08:57:11.990Z,100975.64
2018-07-23T08:58:13.763Z,100975.13
2018-07-23T08:59:14.628Z,100974.72
2018-07-23T09:00:14.355Z,100974.52
2018-07-23T09:01:16.380Z,100974.26
2018-07-23T09:02:16.092Z,100973.92
2018-07-23T09:03:16.846Z,100973.77
2018-07-23T09:04:18.622Z,100973.94
2018-07-23T09:05:19.437Z,100973.52
2018-07-23T09:06:20.215Z,100973.05
2018-07-23T09:07:20.987Z,100972.71
2018-07-23T09:08:21.828Z,100973.17
2018-07-23T09:09:21.625Z,100973.04
2018-07-23T09:10:22.364Z,100972.60
2018-07-23T09:11:24.150Z,100972.66
2018-07-23T09:12:24.920Z,100972.95
2018-07-23T09:13:25.698Z,100972.58
2018-07-23T09:14:26.470Z,100972.77
2018-07-23T09:15:27.278Z,100972.50
2018-07-23T09:16:28.050Z,100971.60
2018-07-23T09:17:28.826Z,100971.23
2018-07-23T09:18:29.609Z,100970.55
2018-07-23T09:19:30.386Z,100970.20
2018-07-23T09:20:31.326Z,100969.59
2018-07-23T09:21:32.105Z,100969.53
2018-07-23T09:22:32.880Z,100969.62
2018-07-23T09:23:33.658Z,100969.19
2018-07-23T09:24:34.897Z,100968.53
2018-07-23T09:31:27.008Z,100957.94
2018-07-23T09:32:27.784Z,100951.58
2018-07-23T09:33:28.563Z,100950.88
2018-07-23T09:34:29.335Z,100950.92
2018-07-23T09:35:30.115Z,100950.89
2018-07-23T09:36:30.918Z,100951.06
2018-07-23T09:37:31.703Z,100950.72
2018-07-23T09:38:32.469Z,100950.34
2018-07-23T09:39:33.258Z,100950.09
2018-07-23T09:40:34.020Z,100950.34
2018-07-23T09:41:34.826Z,100950.10
2018-07-23T09:42:35.601Z,100949.79
2018-07-23T09:43:36.380Z,100949.52
2018-07-23T09:44:37.156Z,100949.80
2018-07-23T09:45:37.972Z,100949.17
2018-07-23T09:46:37.751Z,100949.31
2018-07-23T09:47:39.515Z,100948.34
2018-07-23T09:48:40.292Z,100947.23
2018-07-23T09:49:41.068Z,100947.12
2018-07-23T09:50:41.845Z,100946.68
2018-07-23T09:51:42.656Z,100946.30
2018-07-23T09:52:43.454Z,100946.38
2018-07-23T09:53:43.216Z,100945.69
2018-07-23T09:54:44.980Z,100945.41
2018-07-23T09:55:45.756Z,100945.03
2018-07-23T09:56:46.666Z,100945.44
2018-07-23T09:57:46.363Z,100945.55
2018-07-23T09:58:48.139Z,100945.66
2018-07-23T09:59:48.919Z,100945.23
2018-07-23T10:00:49.690Z,100945.19
2018-07-23T10:01:50.495Z,100944.77
2018-07-23T10:02:51.297Z,100944.88
2018-07-23T10:03:52.062Z,100944.48
2018-07-23T10:04:52.825Z,100944.63
2018-07-23T10:05:53.605Z,100944.38
2018-07-23T10:06:54.405Z,100944.47
2018-07-23T10:07:55.180Z,100944.05
2018-07-23T10:08:55.958Z,100943.93
2018-07-23T10:09:57.734Z,100943.95
2018-07-23T10:10:57.531Z,100943.58
2018-07-23T10:11:57.311Z,100943.11
2018-07-23T10:12:59.089Z,100943.23
2018-07-23T10:13:59.869Z,100942.36
2018-07-23T10:15:00.645Z,100941.52
2018-07-23T10:16:01.441Z,100940.86
2018-07-23T10:17:02.229Z,100940.36
2018-07-23T10:18:03.006Z,100939.83
2018-07-23T10:19:03.787Z,100939.68
2018-07-23T10:20:04.560Z,100939.71
2018-07-23T10:21:05.333Z,100938.91
2018-07-23T10:22:06.200Z,100938.64
2018-07-23T10:23:05.919Z,100938.27
2018-07-23T10:24:07.700Z,100937.38
2018-07-23T10:25:08.472Z,100937.19
2018-07-23T10:26:09.248Z,100936.02
2018-07-23T10:27:10.059Z,100935.30
2018-07-23T10:28:10.832Z,100934.73
2018-07-23T10:29:11.603Z,100934.28
2018-07-23T10:30:12.384Z,100933.81
2018-07-23T10:31:13.153Z,100933.62
2018-07-23T10:32:13.959Z,100933.39
2018-07-23T10:33:14.739Z,100932.98
2018-07-23T10:34:15.510Z,100932.09
2018-07-23T10:35:16.307Z,100931.39
2018-07-23T10:36:17.076Z,100930.84
2018-07-23T10:37:17.883Z,100930.16
2018-07-23T10:38:18.659Z,100929.54
2018-07-23T10:39:19.435Z,100928.84
2018-07-23T10:40:20.211Z,100927.59
2018-07-23T10:41:20.985Z,100926.84
2018-07-23T10:42:21.820Z,100926.08
2018-07-23T10:43:22.593Z,100925.03
2018-07-23T10:44:27.192Z,100924.27
2018-07-23T10:45:22.421Z,100923.60
2018-07-23T10:46:24.198Z,100923.39
2018-07-23T10:47:25.000Z,100922.69
2018-07-23T10:48:25.782Z,100921.75
2018-07-23T10:49:26.555Z,100921.17
2018-07-23T10:50:27.333Z,100920.47
2018-07-23T10:51:28.109Z,100920.05
2018-07-23T10:52:28.920Z,100919.30
2018-07-23T10:53:29.694Z,100919.54
2018-07-23T10:54:30.472Z,100918.41
2018-07-23T10:55:30.254Z,100917.33
2018-07-23T10:56:32.026Z,100916.59
2018-07-23T10:57:32.836Z,100915.67
2018-07-23T10:58:33.610Z,100914.91
2018-07-23T10:59:34.397Z,100914.59
2018-07-23T11:00:35.165Z,100914.09
2018-07-23T11:01:35.956Z,100913.41
2018-07-23T11:02:36.760Z,100913.09
2018-07-23T11:03:37.536Z,100912.77
2018-07-23T11:04:38.398Z,100912.23
2018-07-23T11:05:38.101Z,100912.36
2018-07-23T11:06:39.886Z,100911.65
2018-07-23T11:07:40.686Z,100910.98
2018-07-23T11:08:41.463Z,100910.31
2018-07-23T11:09:42.247Z,100909.67
2018-07-23T11:10:43.018Z,100909.34
2018-07-23T11:11:43.797Z,100908.98
2018-07-23T11:12:44.710Z,100909.19
2018-07-23T11:13:44.374Z,100908.91
2018-07-23T11:14:46.150Z,100908.23
2018-07-23T11:15:46.929Z,100908.03
2018-07-23T11:16:47.723Z,100907.89
2018-07-23T11:17:48.519Z,100907.66
2018-07-23T11:18:49.319Z,100907.77
2018-07-23T11:19:50.081Z,100907.94
2018-07-23T11:20:50.856Z,100907.94
2018-07-23T11:21:52.081Z,100908.40
2018-07-23T11:22:51.451Z,100908.71
2018-07-23T11:23:53.243Z,100909.27
2018-07-23T11:24:54.093Z,100910.08
2018-07-23T11:25:53.778Z,100910.50
2018-07-23T11:26:55.554Z,100910.60
2018-07-23T11:27:58.122Z,100911.09
2018-07-23T11:31:02.433Z,100917.14
2018-07-23T11:32:02.305Z,100912.23
2018-07-23T11:33:02.360Z,100912.77
2018-07-23T11:34:02.069Z,100912.77
2018-07-23T11:35:03.849Z,100912.31
2018-07-23T11:36:04.616Z,100912.48
2018-07-23T11:37:04.391Z,100912.61
2018-07-23T11:38:06.201Z,100912.57
2018-07-23T11:39:06.977Z,100913.02
2018-07-23T11:40:07.748Z,100912.88
2018-07-23T11:41:08.523Z,100913.22
2018-07-23T11:42:09.298Z,100912.86
2018-07-23T11:43:10.104Z,100912.83
2018-07-23T11:44:10.877Z,100912.65
2018-07-23T11:45:11.672Z,100912.17
2018-07-23T11:46:24.426Z,100912.00
2018-07-23T11:47:12.287Z,100911.72
2018-07-23T11:48:13.028Z,100911.06
2018-07-23T11:49:14.800Z,100911.30
2018-07-23T11:50:15.579Z,100911.37
2018-07-23T11:51:16.355Z,100911.09
2018-07-23T11:52:17.152Z,100910.84
2018-07-23T11:53:18.008Z,100910.20
2018-07-23T11:54:17.956Z,100909.92
2018-07-23T11:55:18.883Z,100909.53
2018-07-23T11:56:19.590Z,100909.38
2018-07-23T11:57:21.458Z,100909.16
2018-07-23T11:58:21.190Z,100908.94
2018-07-23T11:59:22.966Z,100908.75
2018-07-23T12:00:23.762Z,100908.25